Portada
METAR-TAF:

METAR-TAF

Aeroports :

Wagga Wagga, Austràlia

latitud: 35-09S, longitud: 147-27E, altitud: 221 m

Observació

L'informe es va fer fa 31 minuts, a les 04:00 UTC
Vent 11 kt del Nord-Oest
Temperatura 20°C
Humitat 68%
Pressió 1010 hPa
Visibilitat 10 km o més
Cel ennuvolat a una alçada de 3200 ft
Cel ennuvolat a una alçada de 4300 ft
Cel ennuvolat a una alçada de 6100 ft

METAR: YSWG 200400Z AUTO 32011KT 9999 // BKN032 BKN043 BKN061 20/14 Q1010

Hora: 14:31 (04:31 UTC)


TAF: manca

Observacions i pronòstics meteorològics de més de 4000 aeroports (METAR i TAF).

Les estacions disponibles són els punts grocs i vermells al mapa.

Posi el ratolí al punt desitjat per veure el nom de l'estació.

Feu clic per veure les observacions i els pronòstics meteorològics.

Per canviar el mapa: feu clic els botons verds amb una creu de color negre per apropar; al botó verd amb un guió per allunyar la imatge; o en les fletxes verdes per a mapes adjacents.


METAR-TAF: